createdAt,value
2018-09-06T00:00:54.302Z,67.30
2018-09-06T00:03:21.303Z,66.87
2018-09-06T00:05:48.349Z,67.09
2018-09-06T00:08:15.315Z,66.89
2018-09-06T00:10:42.388Z,67.07
2018-09-06T00:13:09.368Z,66.22
2018-09-06T00:15:36.350Z,66.80
2018-09-06T00:18:03.315Z,66.75
2018-09-06T00:20:30.304Z,66.24
2018-09-06T00:22:57.321Z,66.71
2018-09-06T00:25:24.254Z,66.67
2018-09-06T00:27:51.278Z,66.57
2018-09-06T00:30:18.242Z,66.32
2018-09-06T00:32:45.247Z,66.51
2018-09-06T00:35:12.234Z,66.85
2018-09-06T00:37:39.657Z,66.99
2018-09-06T00:40:06.587Z,66.90
2018-09-06T00:42:33.513Z,66.66
2018-09-06T00:45:00.449Z,67.23
2018-09-06T00:47:27.414Z,66.96
2018-09-06T00:49:54.402Z,66.93
2018-09-06T00:52:21.418Z,66.46
2018-09-06T00:54:48.661Z,66.42
2018-09-06T00:57:15.656Z,66.98
2018-09-06T00:59:42.625Z,66.45
2018-09-06T01:02:09.666Z,66.22
2018-09-06T01:04:36.700Z,66.43
2018-09-06T01:07:03.708Z,66.35
2018-09-06T01:09:30.697Z,66.92
2018-09-06T01:11:57.645Z,66.31
2018-09-06T01:14:24.574Z,66.90
2018-09-06T01:16:51.513Z,66.64
2018-09-06T01:19:18.475Z,66.89
2018-09-06T01:21:45.417Z,66.89
2018-09-06T01:24:12.368Z,67.17
2018-09-06T01:26:39.330Z,66.24
2018-09-06T01:29:06.290Z,66.51
2018-09-06T01:31:33.214Z,66.25
2018-09-06T01:34:00.116Z,66.82
2018-09-06T01:36:32.477Z,66.24
2018-09-06T01:38:59.412Z,66.52
2018-09-06T01:41:26.418Z,67.21
2018-09-06T01:43:53.348Z,66.89
2018-09-06T01:46:20.314Z,67.16
2018-09-06T01:48:47.294Z,66.58
2018-09-06T01:51:14.244Z,66.41
2018-09-06T01:53:41.333Z,66.47
2018-09-06T01:56:08.298Z,67.21
2018-09-06T01:58:35.241Z,66.58
2018-09-06T02:01:02.157Z,66.99
2018-09-06T02:03:29.168Z,66.26
2018-09-06T02:05:56.185Z,67.00
2018-09-06T02:08:23.102Z,66.98
2018-09-06T02:10:50.037Z,66.40
2018-09-06T02:13:16.953Z,66.87
2018-09-06T02:15:43.917Z,66.94
2018-09-06T02:18:10.845Z,66.31
2018-09-06T02:20:37.736Z,66.93
2018-09-06T02:23:04.745Z,66.68
2018-09-06T02:25:31.762Z,66.99
2018-09-06T02:27:58.736Z,66.52
2018-09-06T02:30:25.679Z,66.91
2018-09-06T02:32:52.650Z,66.42
2018-09-06T02:35:19.617Z,66.48
2018-09-06T02:37:46.569Z,66.34
2018-09-06T02:40:18.815Z,66.19
2018-09-06T02:42:45.735Z,66.53
2018-09-06T02:45:12.698Z,66.87
2018-09-06T02:47:43.843Z,66.51
2018-09-06T02:50:16.129Z,66.72
2018-09-06T02:52:43.049Z,66.87
2018-09-06T02:55:10.087Z,66.98
2018-09-06T02:57:37.066Z,66.29
2018-09-06T03:00:03.971Z,66.68
2018-09-06T03:02:30.895Z,67.11
2018-09-06T03:04:57.830Z,67.24
2018-09-06T03:07:24.759Z,67.21
2018-09-06T03:09:51.681Z,66.76
2018-09-06T03:12:18.621Z,66.65
2018-09-06T03:14:45.533Z,66.65
2018-09-06T03:17:12.429Z,67.12
2018-09-06T03:19:39.326Z,66.18
2018-09-06T03:22:06.216Z,66.18
2018-09-06T03:24:33.110Z,66.48
2018-09-06T03:27:00.014Z,66.37
2018-09-06T03:29:27.022Z,66.69
2018-09-06T03:31:53.927Z,66.63
2018-09-06T03:34:20.817Z,67.01
2018-09-06T03:36:47.709Z,67.53
2018-09-06T03:39:14.607Z,67.82
2018-09-06T03:41:41.501Z,67.20
2018-09-06T03:44:08.385Z,67.83
2018-09-06T03:46:35.336Z,68.08
2018-09-06T03:49:02.362Z,68.30
2018-09-06T03:51:29.304Z,67.50
2018-09-06T03:53:56.234Z,68.74
2018-09-06T03:56:23.175Z,68.76
2018-09-06T03:58:50.175Z,68.80
2018-09-06T04:01:17.145Z,68.22
2018-09-06T04:03:44.150Z,67.58
2018-09-06T04:06:11.166Z,67.70
2018-09-06T04:08:38.168Z,68.20
2018-09-06T04:11:05.103Z,68.25
2018-09-06T04:13:32.061Z,68.02
2018-09-06T04:15:59.024Z,67.57
2018-09-06T04:18:25.990Z,68.45
2018-09-06T04:20:52.969Z,67.54
2018-09-06T04:23:19.997Z,68.32
2018-09-06T04:25:47.046Z,67.75
2018-09-06T04:28:14.403Z,68.07
2018-09-06T04:30:41.419Z,68.32
2018-09-06T04:33:08.440Z,68.04
2018-09-06T04:35:35.451Z,67.41
2018-09-06T04:38:02.398Z,67.39
2018-09-06T04:40:29.395Z,67.98
2018-09-06T04:42:56.337Z,67.99
2018-09-06T04:45:23.310Z,68.02
2018-09-06T04:47:50.283Z,67.92
2018-09-06T04:50:17.290Z,68.16
2018-09-06T04:52:44.249Z,68.27
2018-09-06T04:55:11.395Z,68.30
2018-09-06T04:57:38.388Z,68.16
2018-09-06T05:00:05.372Z,68.15
2018-09-06T05:02:32.352Z,68.30
2018-09-06T05:04:59.318Z,68.18
2018-09-06T05:07:26.259Z,68.32
2018-09-06T05:09:53.219Z,67.94
2018-09-06T05:12:20.202Z,68.25
2018-09-06T05:14:47.203Z,68.15
2018-09-06T05:17:14.182Z,67.60
2018-09-06T05:19:41.205Z,67.60
2018-09-06T05:22:08.232Z,67.74
2018-09-06T05:24:35.221Z,68.06
2018-09-06T05:27:02.236Z,67.69
2018-09-06T05:29:29.410Z,68.30
2018-09-06T05:31:56.382Z,67.71
2018-09-06T05:34:23.357Z,67.66
2018-09-06T05:36:50.564Z,68.03
2018-09-06T05:39:17.526Z,68.33
2018-09-06T05:41:44.437Z,68.23
2018-09-06T05:44:11.913Z,67.58
2018-09-06T05:46:39.381Z,67.67
2018-09-06T05:49:06.314Z,67.63
2018-09-06T05:51:33.322Z,68.24
2018-09-06T05:54:00.287Z,67.57
2018-09-06T05:56:27.209Z,68.02
2018-09-06T05:58:54.181Z,68.23
2018-09-06T06:01:21.145Z,68.02
2018-09-06T06:03:48.105Z,68.43
2018-09-06T06:06:15.041Z,68.12
2018-09-06T06:08:43.451Z,67.95
2018-09-06T06:11:10.427Z,67.87
2018-09-06T06:13:37.362Z,68.26
2018-09-06T06:16:04.445Z,68.27
2018-09-06T06:18:31.264Z,67.53
2018-09-06T06:20:58.224Z,67.43
2018-09-06T06:23:25.209Z,67.22
2018-09-06T06:25:52.159Z,67.28
2018-09-06T06:28:19.140Z,68.18
2018-09-06T06:30:46.047Z,67.95
2018-09-06T06:33:12.996Z,67.52
2018-09-06T06:35:39.980Z,67.31
2018-09-06T06:38:06.978Z,67.97
2018-09-06T06:40:33.932Z,67.41
2018-09-06T06:43:00.854Z,67.88
2018-09-06T06:45:27.825Z,68.12
2018-09-06T06:47:54.736Z,67.58
2018-09-06T06:50:21.790Z,68.17
2018-09-06T06:52:48.721Z,67.53
2018-09-06T06:55:15.917Z,68.32
2018-09-06T06:57:42.878Z,67.35
2018-09-06T07:00:09.839Z,67.95
2018-09-06T07:02:36.870Z,67.56
2018-09-06T07:05:03.846Z,67.12
2018-09-06T07:07:30.833Z,67.76
2018-09-06T07:09:57.979Z,67.45
2018-09-06T07:12:25.023Z,67.93
2018-09-06T07:14:52.018Z,67.13
2018-09-06T07:17:18.956Z,68.03
2018-09-06T07:19:45.910Z,67.83
2018-09-06T07:22:12.877Z,67.54
2018-09-06T07:24:39.822Z,67.29
2018-09-06T07:27:06.879Z,67.30
2018-09-06T07:29:33.881Z,67.80
2018-09-06T07:32:00.986Z,67.31
2018-09-06T07:34:27.900Z,67.26
2018-09-06T07:36:54.886Z,67.79
2018-09-06T07:39:21.905Z,67.33
2018-09-06T07:41:48.837Z,67.38
2018-09-06T07:44:15.757Z,67.10
2018-09-06T07:46:42.773Z,67.97
2018-09-06T07:49:09.734Z,67.95
2018-09-06T07:51:36.766Z,67.60
2018-09-06T07:54:03.787Z,67.02
2018-09-06T07:56:30.718Z,67.52
2018-09-06T07:58:57.764Z,67.61
2018-09-06T08:01:24.707Z,67.88
2018-09-06T08:03:51.766Z,67.73
2018-09-06T08:06:18.715Z,67.84
2018-09-06T08:08:45.671Z,67.58
2018-09-06T08:11:12.560Z,67.01
2018-09-06T08:13:39.547Z,68.00
2018-09-06T08:16:06.449Z,67.76
2018-09-06T08:18:33.358Z,67.86
2018-09-06T08:21:00.627Z,67.44
2018-09-06T08:23:27.617Z,67.39
2018-09-06T08:25:54.512Z,67.22
2018-09-06T08:28:21.469Z,67.87
2018-09-06T08:30:48.443Z,67.32
2018-09-06T08:33:15.349Z,67.60
2018-09-06T08:35:42.246Z,67.35
2018-09-06T08:38:09.177Z,68.00
2018-09-06T08:40:36.070Z,67.37
2018-09-06T08:43:02.974Z,66.60
2018-09-06T08:45:29.962Z,66.89
2018-09-06T08:47:56.827Z,66.92
2018-09-06T08:50:23.747Z,67.12
2018-09-06T08:52:50.643Z,66.78
2018-09-06T08:55:17.519Z,68.02
2018-09-06T08:57:44.422Z,66.32
2018-09-06T09:00:11.338Z,66.00
2018-09-06T09:02:38.305Z,66.05
2018-09-06T09:05:05.157Z,65.80
2018-09-06T09:07:32.112Z,66.02
2018-09-06T09:09:58.962Z,66.62
2018-09-06T09:12:26.037Z,66.32
2018-09-06T09:14:52.822Z,66.66
2018-09-06T09:17:19.725Z,66.88
2018-09-06T09:19:46.617Z,67.54
2018-09-06T09:22:13.688Z,67.18
2018-09-06T09:24:40.433Z,67.57
2018-09-06T09:27:07.375Z,67.38
2018-09-06T09:29:34.269Z,67.11
2018-09-06T09:32:01.369Z,66.63
2018-09-06T09:34:28.297Z,67.57
2018-09-06T09:36:55.195Z,67.41
2018-09-06T09:39:22.116Z,66.77
2018-09-06T09:41:49.013Z,67.02
2018-09-06T09:44:16.013Z,67.36
2018-09-06T09:49:09.000Z,67.12
2018-09-06T09:51:35.903Z,67.10
2018-09-06T09:54:02.800Z,66.94
2018-09-06T09:56:29.726Z,67.68
2018-09-06T09:58:56.635Z,67.20
2018-09-06T10:01:27.758Z,67.39
2018-09-06T10:03:59.973Z,66.81
2018-09-06T10:06:32.250Z,67.66
2018-09-06T10:09:04.525Z,66.97
2018-09-06T10:11:31.434Z,67.71
2018-09-06T10:13:58.333Z,67.48
2018-09-06T10:16:25.273Z,67.38
2018-09-06T10:18:52.218Z,66.71
2018-09-06T10:21:19.110Z,66.93
2018-09-06T10:23:46.020Z,67.36
2018-09-06T10:26:12.920Z,67.53
2018-09-06T10:28:39.804Z,67.17
2018-09-06T10:31:06.719Z,67.31
2018-09-06T10:33:33.613Z,66.76
2018-09-06T10:36:00.516Z,67.35
2018-09-06T10:38:27.416Z,66.52
2018-09-06T10:40:54.320Z,66.58
2018-09-06T10:43:21.233Z,67.10
2018-09-06T10:45:48.109Z,67.08
2018-09-06T10:48:14.999Z,67.00
2018-09-06T10:50:41.908Z,67.33
2018-09-06T10:53:08.809Z,66.90
2018-09-06T10:55:35.702Z,66.90
2018-09-06T10:58:02.597Z,67.19
2018-09-06T11:00:29.880Z,67.08
2018-09-06T11:02:56.861Z,66.28
2018-09-06T11:05:23.749Z,67.07
2018-09-06T11:07:50.722Z,66.44
2018-09-06T11:10:17.658Z,67.08
2018-09-06T11:12:44.549Z,66.90
2018-09-06T11:15:11.499Z,66.21
2018-09-06T11:17:38.369Z,66.38
2018-09-06T11:20:05.267Z,66.41
2018-09-06T11:22:32.349Z,66.79
2018-09-06T11:24:59.112Z,66.97
2018-09-06T11:27:26.008Z,66.90
2018-09-06T11:29:52.918Z,66.33
2018-09-06T11:32:19.822Z,66.12
2018-09-06T11:34:46.722Z,65.96
2018-09-06T11:37:13.618Z,66.24
2018-09-06T11:39:40.510Z,66.06
2018-09-06T11:42:07.462Z,66.68
2018-09-06T11:44:34.349Z,66.66
2018-09-06T11:47:01.316Z,66.74
2018-09-06T11:49:28.199Z,65.83
2018-09-06T11:51:55.147Z,66.63
2018-09-06T11:54:22.032Z,66.77
2018-09-06T11:56:48.983Z,66.49
2018-09-06T11:59:15.897Z,66.33
2018-09-06T12:01:42.831Z,66.33
2018-09-06T12:04:10.025Z,66.83
2018-09-06T12:06:36.985Z,66.33
2018-09-06T12:09:05.125Z,65.99
2018-09-06T12:11:32.030Z,66.00
2018-09-06T12:13:58.921Z,65.79
2018-09-06T12:16:25.800Z,65.80
2018-09-06T12:18:52.694Z,66.59
2018-09-06T12:21:19.597Z,66.54
2018-09-06T12:23:46.484Z,65.95
2018-09-06T12:26:13.373Z,66.70
2018-09-06T12:28:40.277Z,66.49
2018-09-06T12:31:07.156Z,66.48
2018-09-06T12:33:34.207Z,65.97
2018-09-06T12:36:01.081Z,65.75
2018-09-06T12:38:27.973Z,65.89
2018-09-06T12:40:54.893Z,65.90
2018-09-06T12:43:21.790Z,66.56
2018-09-06T12:45:48.708Z,66.63
2018-09-06T12:48:15.610Z,66.23
2018-09-06T12:50:42.535Z,66.35
2018-09-06T12:53:09.431Z,66.61
2018-09-06T12:55:36.343Z,65.83
2018-09-06T12:58:03.240Z,66.34
2018-09-06T13:00:30.166Z,66.47
2018-09-06T13:02:57.058Z,66.50
2018-09-06T13:05:23.945Z,65.84
2018-09-06T13:07:50.841Z,65.72
2018-09-06T13:10:17.745Z,65.75
2018-09-06T13:12:44.714Z,65.90
2018-09-06T13:15:11.605Z,66.42
2018-09-06T13:17:38.505Z,65.70
2018-09-06T13:20:05.414Z,65.75
2018-09-06T13:22:32.300Z,66.54
2018-09-06T13:24:59.298Z,66.59
2018-09-06T13:27:26.193Z,66.58
2018-09-06T13:29:53.097Z,66.36
2018-09-06T13:32:20.017Z,66.28
2018-09-06T13:34:46.960Z,66.03
2018-09-06T13:37:13.867Z,66.12
2018-09-06T13:39:40.763Z,66.34
2018-09-06T13:42:07.656Z,66.60
2018-09-06T13:44:34.557Z,66.01
2018-09-06T13:47:01.495Z,66.31
2018-09-06T13:49:28.398Z,66.46
2018-09-06T13:51:55.608Z,66.37
2018-09-06T13:54:22.539Z,65.37
2018-09-06T13:56:49.560Z,65.92
2018-09-06T13:59:16.750Z,66.21
2018-09-06T14:01:43.705Z,65.53
2018-09-06T14:04:10.881Z,65.93
2018-09-06T14:06:37.858Z,66.09
2018-09-06T14:09:05.331Z,65.94
2018-09-06T14:11:32.236Z,66.09
2018-09-06T14:13:59.121Z,65.37
2018-09-06T14:16:26.098Z,65.26
2018-09-06T14:18:53.076Z,65.63
2018-09-06T14:21:20.153Z,65.74
2018-09-06T14:23:47.180Z,65.28
2018-09-06T14:26:14.138Z,65.82
2018-09-06T14:28:41.038Z,65.34
2018-09-06T14:31:07.916Z,65.67
2018-09-06T14:33:34.997Z,65.90
2018-09-06T14:36:01.964Z,65.34
2018-09-06T14:38:28.879Z,65.03
2018-09-06T14:40:55.769Z,64.99
2018-09-06T14:43:22.656Z,65.67
2018-09-06T14:45:49.562Z,65.97
2018-09-06T14:48:16.449Z,65.74
2018-09-06T14:50:43.367Z,65.86
2018-09-06T14:53:10.276Z,65.53
2018-09-06T14:55:37.245Z,65.21
2018-09-06T14:58:04.145Z,65.58
2018-09-06T15:00:31.044Z,65.72
2018-09-06T15:02:57.932Z,65.59
2018-09-06T15:05:24.845Z,65.61
2018-09-06T15:07:51.861Z,65.26
2018-09-06T15:10:18.843Z,65.27
2018-09-06T15:12:45.843Z,65.71
2018-09-06T15:15:12.898Z,65.26
2018-09-06T15:17:39.847Z,65.20
2018-09-06T15:20:07.050Z,65.74
2018-09-06T15:22:33.969Z,65.21
2018-09-06T15:25:00.975Z,65.23
2018-09-06T15:27:28.063Z,65.89
2018-09-06T15:29:55.074Z,65.77
2018-09-06T15:32:22.044Z,65.29
2018-09-06T15:34:49.106Z,65.16
2018-09-06T15:37:16.128Z,65.08
2018-09-06T15:39:43.106Z,65.79
2018-09-06T15:42:10.120Z,65.26
2018-09-06T15:44:37.061Z,65.08
2018-09-06T15:47:04.084Z,65.67
2018-09-06T15:49:31.233Z,65.49
2018-09-06T15:51:58.267Z,65.68
2018-09-06T15:54:25.313Z,65.83
2018-09-06T15:56:52.296Z,65.62
2018-09-06T15:59:19.235Z,65.79
2018-09-06T16:01:46.188Z,65.99
2018-09-06T16:04:13.118Z,65.25
2018-09-06T16:06:40.072Z,65.54
2018-09-06T16:09:07.036Z,65.61
2018-09-06T16:11:34.039Z,65.86
2018-09-06T16:14:01.102Z,66.30
2018-09-06T16:16:28.176Z,65.99
2018-09-06T16:18:55.135Z,65.42
2018-09-06T16:21:22.068Z,66.12
2018-09-06T16:23:49.033Z,65.99
2018-09-06T16:26:15.986Z,65.51
2018-09-06T16:28:43.009Z,65.96
2018-09-06T16:31:09.958Z,65.78
2018-09-06T16:33:37.009Z,65.55
2018-09-06T16:36:03.985Z,66.06
2018-09-06T16:38:30.910Z,65.94
2018-09-06T16:40:57.892Z,65.20
2018-09-06T16:43:24.845Z,65.73
2018-09-06T16:45:51.799Z,65.31
2018-09-06T16:48:18.746Z,65.34
2018-09-06T16:50:45.699Z,65.63
2018-09-06T16:53:12.666Z,65.76
2018-09-06T16:55:39.693Z,65.97
2018-09-06T16:58:06.629Z,65.64
2018-09-06T17:00:33.524Z,65.29
2018-09-06T17:03:00.438Z,65.46
2018-09-06T17:05:27.369Z,64.99
2018-09-06T17:07:54.305Z,65.10
2018-09-06T17:10:21.220Z,65.83
2018-09-06T17:12:48.178Z,65.27
2018-09-06T17:15:15.057Z,65.06
2018-09-06T17:17:42.222Z,65.71
2018-09-06T17:20:09.319Z,65.23
2018-09-06T17:22:36.208Z,65.73
2018-09-06T17:25:03.096Z,64.94
2018-09-06T17:27:30.120Z,65.13
2018-09-06T17:29:57.129Z,65.03
2018-09-06T17:32:24.047Z,65.88
2018-09-06T17:34:50.961Z,65.31
2018-09-06T17:37:17.857Z,65.73
2018-09-06T17:39:44.759Z,64.97
2018-09-06T17:42:11.649Z,65.49
2018-09-06T17:44:38.561Z,65.39
2018-09-06T17:47:05.461Z,65.54
2018-09-06T17:49:32.393Z,65.54
2018-09-06T17:51:59.303Z,65.21
2018-09-06T17:54:26.346Z,65.22
2018-09-06T17:56:53.193Z,65.69
2018-09-06T17:59:20.078Z,65.54
2018-09-06T18:01:46.971Z,65.69
2018-09-06T18:04:13.883Z,65.38
2018-09-06T18:06:40.802Z,65.11
2018-09-06T18:09:07.697Z,65.47
2018-09-06T18:11:34.601Z,65.61
2018-09-06T18:14:01.489Z,65.03
2018-09-06T18:16:28.459Z,65.71
2018-09-06T18:18:55.585Z,66.07
2018-09-06T18:21:22.586Z,65.74
2018-09-06T18:23:49.474Z,65.84
2018-09-06T18:26:16.452Z,65.35
2018-09-06T18:28:43.375Z,65.78
2018-09-06T18:31:10.285Z,65.00
2018-09-06T18:33:37.218Z,66.00
2018-09-06T18:36:04.146Z,65.20
2018-09-06T18:38:31.042Z,65.98
2018-09-06T18:40:57.928Z,64.99
2018-09-06T18:43:24.834Z,65.47
2018-09-06T18:45:51.732Z,65.75
2018-09-06T18:48:18.681Z,65.77
2018-09-06T18:50:45.608Z,65.86
2018-09-06T18:53:12.614Z,65.42
2018-09-06T18:55:39.661Z,65.58
2018-09-06T18:58:06.548Z,65.67
2018-09-06T19:00:33.425Z,65.06
2018-09-06T19:03:00.318Z,65.23
2018-09-06T19:05:27.214Z,65.27
2018-09-06T19:07:54.127Z,65.38
2018-09-06T19:10:21.082Z,66.06
2018-09-06T19:12:48.078Z,65.98
2018-09-06T19:15:15.062Z,65.97
2018-09-06T19:17:42.103Z,66.18
2018-09-06T19:20:09.101Z,65.27
2018-09-06T19:22:36.134Z,66.10
2018-09-06T19:25:03.162Z,65.50
2018-09-06T19:27:30.093Z,65.49
2018-09-06T19:29:57.072Z,65.91
2018-09-06T19:32:24.061Z,65.66
2018-09-06T19:34:51.046Z,66.19
2018-09-06T19:37:17.978Z,66.39
2018-09-06T19:39:44.966Z,65.78
2018-09-06T19:42:11.931Z,65.78
2018-09-06T19:44:38.964Z,65.99
2018-09-06T19:47:05.943Z,66.46
2018-09-06T19:49:33.088Z,66.23
2018-09-06T19:52:00.123Z,65.88
2018-09-06T19:54:27.096Z,66.29
2018-09-06T19:56:54.565Z,65.89
2018-09-06T19:59:21.516Z,66.25
2018-09-06T20:01:48.532Z,66.42
2018-09-06T20:04:15.502Z,66.09
2018-09-06T20:06:42.472Z,65.97
2018-09-06T20:09:09.383Z,66.45
2018-09-06T20:11:36.390Z,66.45
2018-09-06T20:14:03.325Z,66.31
2018-09-06T20:16:30.232Z,66.69
2018-09-06T20:18:57.169Z,65.80
2018-09-06T20:21:24.102Z,66.58
2018-09-06T20:23:51.015Z,66.42
2018-09-06T20:26:17.982Z,66.53
2018-09-06T20:28:44.885Z,66.54
2018-09-06T20:31:11.814Z,66.72
2018-09-06T20:33:38.772Z,65.92
2018-09-06T20:36:05.706Z,66.56
2018-09-06T20:38:32.652Z,66.69
2018-09-06T20:40:59.597Z,66.15
2018-09-06T20:43:26.620Z,66.32
2018-09-06T20:45:53.597Z,66.42
2018-09-06T20:48:20.560Z,66.66
2018-09-06T20:50:47.545Z,66.60
2018-09-06T20:53:14.624Z,66.49
2018-09-06T20:55:41.484Z,66.07
2018-09-06T20:58:08.428Z,66.54
2018-09-06T21:00:35.416Z,66.06
2018-09-06T21:03:02.362Z,66.70
2018-09-06T21:05:29.328Z,66.15
2018-09-06T21:07:56.289Z,66.60
2018-09-06T21:10:23.228Z,65.79
2018-09-06T21:12:50.261Z,65.99
2018-09-06T21:15:17.229Z,66.54
2018-09-06T21:17:44.199Z,66.62
2018-09-06T21:20:11.149Z,66.02
2018-09-06T21:22:38.131Z,66.40
2018-09-06T21:25:05.139Z,65.92
2018-09-06T21:27:32.119Z,66.76
2018-09-06T21:29:59.190Z,66.58
2018-09-06T21:32:26.105Z,65.82
2018-09-06T21:34:53.141Z,66.62
2018-09-06T21:37:20.057Z,65.95
2018-09-06T21:39:47.049Z,66.01
2018-09-06T21:42:13.960Z,65.95
2018-09-06T21:44:40.874Z,66.03
2018-09-06T21:47:07.898Z,66.46
2018-09-06T21:49:34.885Z,66.49
2018-09-06T21:52:01.870Z,66.25
2018-09-06T21:54:28.797Z,66.47
2018-09-06T21:56:55.761Z,66.13
2018-09-06T21:59:22.700Z,66.32
2018-09-06T22:01:51.239Z,66.72
2018-09-06T22:04:18.217Z,66.71
2018-09-06T22:06:45.281Z,65.97
2018-09-06T22:09:13.074Z,66.84
2018-09-06T22:11:40.106Z,66.21
2018-09-06T22:14:07.028Z,65.89
2018-09-06T22:16:33.970Z,66.62
2018-09-06T22:19:00.946Z,66.68
2018-09-06T22:21:27.896Z,65.90
2018-09-06T22:23:54.886Z,66.79
2018-09-06T22:26:21.854Z,66.52
2018-09-06T22:28:48.865Z,66.69
2018-09-06T22:31:15.788Z,66.05
2018-09-06T22:33:42.742Z,66.12
2018-09-06T22:36:09.689Z,65.92
2018-09-06T22:38:36.629Z,66.86
2018-09-06T22:41:03.974Z,66.30
2018-09-06T22:43:30.993Z,66.81
2018-09-06T22:45:58.106Z,66.53
2018-09-06T22:48:25.122Z,66.81
2018-09-06T22:50:52.058Z,66.28
2018-09-06T22:53:19.050Z,66.57
2018-09-06T22:55:45.957Z,65.89
2018-09-06T22:58:12.854Z,65.92
2018-09-06T23:00:39.801Z,66.79
2018-09-06T23:03:12.084Z,66.61
2018-09-06T23:05:39.045Z,66.59
2018-09-06T23:08:05.978Z,66.63
2018-09-06T23:10:32.902Z,66.55
2018-09-06T23:12:59.859Z,65.98
2018-09-06T23:15:26.848Z,66.68
2018-09-06T23:17:53.794Z,66.53
2018-09-06T23:20:20.738Z,66.25
2018-09-06T23:22:47.702Z,66.80
2018-09-06T23:25:14.654Z,66.61
2018-09-06T23:27:41.583Z,65.97
2018-09-06T23:30:08.535Z,66.83
2018-09-06T23:32:35.480Z,66.75
2018-09-06T23:35:02.500Z,66.36
2018-09-06T23:37:29.430Z,66.75
2018-09-06T23:39:56.382Z,66.66
2018-09-06T23:42:25.189Z,66.33
2018-09-06T23:44:52.134Z,66.66
2018-09-06T23:47:19.044Z,66.05
2018-09-06T23:49:46.021Z,66.01
2018-09-06T23:52:12.930Z,66.41
2018-09-06T23:54:39.860Z,66.06
2018-09-06T23:57:06.802Z,65.91
2018-09-06T23:59:33.761Z,65.95
